Impacts TAF Board
For situational awareness. Not to be used for flight planning purposes.
IDs:

KBWI - Baltimore-Washington, MD, US

Issued at 1720 UTC 12 Dec 2018
Updated at 1819 UTC 12 Dec 2018
Potential Impact None Slight Moderate High
Time1754Z 12/19Z 12/20Z 12/21Z 12/22Z 12/23Z 13/00Z 13/01Z 13/02Z 13/03Z 13/04Z 13/05Z 13/06Z 13/07Z>>
Type OBS PRVL PRVL PRVL PRVL PRVL PRVL PRVL PRVL PRVL PRVL PRVL PRVL PRVL
VIS 10 >6 >6 >6 >6 >6 >6 >6 >6 >6 >6 >6 >6 >6
CIG 250 -- -- -- -- -- 120 120 120 120 120 120 120 120
Cover OVC SCT SCT SCT SCT SCT BKN BKN BKN BKN BKN BKN BKN BKN
FltCat VFR VFR VFR VFR VFR VFR VFR VFR VFR VFR VFR VFR VFR VFR
WX -- -- -- -- -- -- -- -- -- -- -- -- -- --
WDir 280 290 290 290 290 290 160 160 160 160 160 160 160 160
WSpd 7 8 8 8 8 8 4 4 4 4 4 4 4 4
WGst -- -- -- -- -- -- -- -- -- -- -- -- -- --
Raw TAF
KBWI 121720Z 1218/1324 29008KT P6SM SCT200
  FM130000 16004KT P6SM BKN120
  FM132100 10005KT P6SM SCT040


Raw METAR
KBWI 121754Z 28007KT 10SM SCT180 OVC250 07/M04 A3015 RMK AO2 SLP211 T00721039 10078 21006 58021
KBWI 121654Z 29008KT 10SM FEW180 OVC250 07/M04 A3018 RMK AO2 SLP219 T00721039
KBWI 121554Z 27006KT 10SM FEW180 OVC250 06/M04 A3020 RMK AO2 SLP229 T00611044

METAR Board
Radar Display
Forecast Discussion
For situational awareness. Not to be used for flight planning purposes.